Time;durP1;ratioP1;P1;durP2;ratioP2;P2;SDS_P1;SDS_P2;PMS_P1;PMS_P2;Temp;Humidity;BMP_temperature;BMP_pressure;BME280_temperature;BME280_humidity;BME280_pressure;Samples;Min_cycle;Max_cycle;Signal;HPM_P1;HPM_P2
2021/05/05 00:01:28;;;;;;;5.00;1.50;;;;;;;4.02;68.08;95273.94;1754067;82;21157;-63
2021/05/05 00:03:56;;;;;;;2.93;1.80;;;;;;;3.96;68.94;95271.34;1754368;82;21133;-62
2021/05/05 00:06:23;;;;;;;2.40;1.70;;;;;;;3.80;68.53;95279.10;1754041;82;21173;-62
2021/05/05 00:08:51;;;;;;;2.73;2.20;;;;;;;3.66;69.96;95277.78;1754111;81;21133;-62
2021/05/05 00:11:19;;;;;;;4.07;2.37;;;;;;;3.62;70.63;95272.55;1753979;82;21141;-62
2021/05/05 00:13:47;;;;;;;4.13;3.37;;;;;;;3.61;70.75;95269.07;1754418;82;21106;-62
2021/05/05 00:16:14;;;;;;;3.83;2.43;;;;;;;3.64;70.95;95264.30;1754281;82;21177;-62
2021/05/05 00:18:42;;;;;;;4.00;1.90;;;;;;;3.60;71.79;95262.53;1754108;82;21161;-62
2021/05/05 00:21:09;;;;;;;1.90;1.50;;;;;;;3.62;71.49;95256.45;1754196;82;21145;-62
2021/05/05 00:23:36;;;;;;;3.13;1.70;;;;;;;3.50;71.92;95251.19;1754276;82;21149;-62
2021/05/05 00:26:04;;;;;;;3.17;2.00;;;;;;;3.49;71.38;95242.94;1754206;81;21157;-62
2021/05/05 00:28:31;;;;;;;5.13;1.53;;;;;;;3.42;71.27;95248.56;1754213;82;21583;-61
2021/05/05 00:30:59;;;;;;;2.63;2.00;;;;;;;3.49;71.06;95252.07;1754227;81;21169;-62
2021/05/05 00:33:27;;;;;;;1.93;1.77;;;;;;;3.52;70.87;95252.52;1754145;82;21152;-62
2021/05/05 00:35:55;;;;;;;3.63;2.03;;;;;;;3.56;70.58;95240.80;1754712;82;21136;-62
2021/05/05 00:38:23;;;;;;;4.70;2.30;;;;;;;3.61;71.47;95244.73;1754181;82;21177;-62
2021/05/05 00:40:50;;;;;;;4.50;2.00;;;;;;;3.67;71.83;95239.07;1754276;81;21540;-62
2021/05/05 00:43:18;;;;;;;4.73;3.30;;;;;;;3.72;72.37;95240.39;1754594;82;21314;-62
2021/05/05 00:45:45;;;;;;;4.83;2.77;;;;;;;3.75;71.60;95239.52;1754224;82;21145;-62
2021/05/05 00:48:12;;;;;;;4.27;2.70;;;;;;;3.80;71.26;95249.09;1754486;82;21283;-62
2021/05/05 00:50:40;;;;;;;3.30;2.53;;;;;;;3.92;71.25;95240.87;1754355;82;21618;-62
2021/05/05 00:53:08;;;;;;;4.23;2.00;;;;;;;3.94;71.57;95237.39;1748015;81;21181;-62
2021/05/05 00:55:36;;;;;;;2.90;2.23;;;;;;;3.93;71.25;95234.77;1740471;82;21124;-62
2021/05/05 00:58:05;;;;;;;3.20;1.77;;;;;;;4.00;71.46;95228.24;1740188;82;21285;-62
2021/05/05 01:00:33;;;;;;;4.13;2.10;;;;;;;4.12;70.65;95236.09;1740184;82;21288;-62
2021/05/05 01:03:01;;;;;;;2.77;2.27;;;;;;;4.16;70.72;95231.75;1740048;82;21762;-62
2021/05/05 01:05:29;;;;;;;3.10;1.87;;;;;;;4.16;70.92;95231.75;1740265;82;21126;-62
2021/05/05 01:07:57;;;;;;;4.17;2.40;;;;;;;4.09;71.07;95221.73;1740114;82;21304;-62
2021/05/05 01:10:25;;;;;;;4.03;2.90;;;;;;;4.01;71.19;95235.23;1740312;82;21317;-62
2021/05/05 01:12:55;;;;;;;3.50;2.00;;;;;;;3.93;71.15;95227.83;1740662;82;21125;-62
2021/05/05 01:15:23;;;;;;;4.90;2.60;;;;;;;3.81;72.44;95219.54;1740117;82;21276;-62
2021/05/05 01:17:51;;;;;;;3.83;2.27;;;;;;;3.78;72.42;95240.42;1739832;82;21552;-62
2021/05/05 01:20:19;;;;;;;4.10;2.63;;;;;;;3.74;72.48;95234.74;1740176;82;21280;-62
2021/05/05 01:22:46;;;;;;;2.97;2.27;;;;;;;3.68;73.33;95237.36;1740408;82;21103;-62
2021/05/05 01:25:18;;;;;;;5.00;3.23;;;;;;;3.71;72.25;95232.14;1740153;82;21281;-62
2021/05/05 01:27:45;;;;;;;3.20;2.47;;;;;;;3.74;72.55;95226.05;1740107;82;21287;-62
2021/05/05 01:30:17;;;;;;;3.23;2.50;;;;;;;3.76;72.60;95224.32;1740126;82;21111;-62
2021/05/05 01:32:45;;;;;;;3.77;2.30;;;;;;;3.82;71.73;95223.02;1739983;82;21513;-62
2021/05/05 01:35:15;;;;;;;5.67;2.87;;;;;;;3.87;72.46;95224.75;1740274;82;21567;-62
2021/05/05 01:37:44;;;;;;;3.00;1.83;;;;;;;3.90;71.34;95215.61;1740204;82;21281;-62
2021/05/05 01:40:24;;;;;;;3.07;2.30;;;;;;;3.91;71.19;95211.29;1740195;82;21145;-62
2021/05/05 01:42:52;;;;;;;9.43;4.10;;;;;;;3.85;72.41;95213.44;1740071;82;21576;-62
2021/05/05 01:45:22;;;;;;;13.10;5.07;;;;;;;3.78;72.10;95210.81;1740737;82;21568;-62
2021/05/05 01:48:02;;;;;;;6.97;3.60;;;;;;;3.73;73.19;95208.64;1740293;82;21153;-62
2021/05/05 01:50:31;;;;;;;9.43;3.70;;;;;;;3.75;72.48;95203.86;1740065;82;21309;-62
2021/05/05 01:52:59;;;;;;;4.80;2.10;;;;;;;3.78;72.80;95201.27;1718076;82;21571;-62
2021/05/05 01:55:27;;;;;;;5.93;1.63;;;;;;;3.84;72.95;95203.88;1740455;82;21150;-62
2021/05/05 01:57:56;;;;;;;3.30;1.90;;;;;;;3.89;72.47;95196.06;1740181;82;21256;-62
2021/05/05 02:00:29;;;;;;;3.87;1.97;;;;;;;3.99;72.37;95186.50;1739958;81;21276;-62
2021/05/05 02:02:59;;;;;;;3.30;1.90;;;;;;;4.12;71.73;95184.31;1739588;82;21158;-62
2021/05/05 02:05:31;;;;;;;3.53;1.60;;;;;;;4.15;72.09;95183.00;1740170;82;21714;-62
2021/05/05 02:08:01;;;;;;;2.60;1.60;;;;;;;4.18;71.83;95182.13;1739533;82;21280;-62
2021/05/05 02:10:30;;;;;;;5.07;2.03;;;;;;;4.20;71.87;95176.03;1740099;82;21729;-62
2021/05/05 02:12:58;;;;;;;15.07;5.70;;;;;;;4.30;72.01;95175.59;1740136;82;21602;-62
2021/05/05 02:15:26;;;;;;;16.37;6.47;;;;;;;4.39;71.77;95167.75;1740076;82;21614;-62
2021/05/05 02:17:59;;;;;;;7.20;3.17;;;;;;;4.32;71.60;95168.19;1739946;82;21295;-62
2021/05/05 02:20:27;;;;;;;7.40;3.43;;;;;;;4.30;71.55;95168.62;1740149;82;21710;-62
2021/05/05 02:22:57;;;;;;;9.87;4.47;;;;;;;4.33;71.53;95159.91;1740278;82;21134;-62
2021/05/05 02:25:25;;;;;;;4.47;2.77;;;;;;;4.36;71.46;95147.28;1740172;82;21169;-62
2021/05/05 02:27:54;;;;;;;6.47;2.00;;;;;;;4.38;71.26;95141.62;1740116;82;21125;-62
2021/05/05 02:30:27;;;;;;;2.33;1.73;;;;;;;4.28;71.82;95134.23;1739432;82;21264;-62
2021/05/05 02:32:56;;;;;;;2.23;1.70;;;;;;;4.21;71.19;95138.62;1739264;82;21709;-62
2021/05/05 02:35:25;;;;;;;2.40;1.53;;;;;;;4.14;71.67;95137.33;1740244;82;21280;-62
2021/05/05 02:37:55;;;;;;;7.27;2.77;;;;;;;4.10;71.07;95140.36;1740017;82;21248;-62
2021/05/05 02:40:22;;;;;;;38.17;12.10;;;;;;;3.99;72.62;95136.90;1740485;82;21131;-62
2021/05/05 02:42:52;;;;;;;7.47;3.20;;;;;;;3.83;73.77;95143.84;1740410;82;21138;-62
2021/05/05 02:45:20;;;;;;;2.60;1.80;;;;;;;3.77;74.17;95139.94;1740301;82;21133;-62
2021/05/05 02:47:48;;;;;;;2.60;1.93;;;;;;;3.81;74.04;95139.95;1740119;82;21433;-62
2021/05/05 02:50:16;;;;;;;3.30;1.97;;;;;;;3.85;73.54;95140.36;1740052;82;21106;-62
2021/05/05 02:52:44;;;;;;;2.43;1.67;;;;;;;3.89;72.67;95144.72;1739968;82;21288;-62
2021/05/05 02:55:12;;;;;;;4.77;2.00;;;;;;;3.88;72.58;95147.32;1740267;82;21548;-62
2021/05/05 02:57:41;;;;;;;1.30;1.20;;;;;;;3.87;71.96;95144.29;1740366;82;21271;-62
2021/05/05 03:00:12;;;;;;;5.87;2.70;;;;;;;3.85;71.99;95144.72;1740012;81;21307;-62
2021/05/05 03:02:40;;;;;;;6.43;3.00;;;;;;;3.76;73.24;95142.98;1739997;82;21288;-62
2021/05/05 03:05:10;;;;;;;4.83;2.63;;;;;;;3.72;72.84;95138.63;1740299;82;21471;-62
2021/05/05 03:07:37;;;;;;;3.03;1.77;;;;;;;3.64;74.29;95132.10;1740187;82;21153;-62
2021/05/05 03:10:07;;;;;;;5.63;2.47;;;;;;;3.62;73.22;95138.19;1740077;82;21291;-62
2021/05/05 03:12:35;;;;;;;3.20;2.23;;;;;;;3.60;72.84;95138.61;1739969;82;21154;-62
2021/05/05 03:15:06;;;;;;;3.20;2.00;;;;;;;3.61;72.97;95143.84;1740272;82;21579;-62
2021/05/05 03:17:35;;;;;;;1.57;1.30;;;;;;;3.64;72.82;95142.54;1740185;82;21521;-62
2021/05/05 03:20:08;;;;;;;5.80;2.90;;;;;;;3.60;74.26;95145.14;1739954;82;21272;-62
2021/05/05 03:22:36;;;;;;;5.57;2.47;;;;;;;3.53;74.74;95137.77;1740275;82;21133;-62
2021/05/05 03:25:07;;;;;;;19.93;7.17;;;;;;;3.54;74.59;95140.79;1740347;82;21118;-62
2021/05/05 03:27:36;;;;;;;33.53;11.93;;;;;;;3.53;74.65;95139.47;1740216;82;21260;-62
2021/05/05 03:30:09;;;;;;;4.70;2.27;;;;;;;3.53;74.34;95144.69;1740490;82;21260;-62
2021/05/05 03:32:36;;;;;;;3.83;1.80;;;;;;;3.58;74.45;95141.65;1740279;82;21742;-62
2021/05/05 03:35:07;;;;;;;3.43;1.20;;;;;;;3.65;73.99;95141.69;1739845;82;21149;-62
2021/05/05 03:37:35;;;;;;;11.57;4.63;;;;;;;3.68;74.08;95139.52;1740253;82;21118;-62
2021/05/05 03:40:08;;;;;;;8.77;4.50;;;;;;;3.72;74.98;95141.23;1740237;82;21288;-62
2021/05/05 03:42:36;;;;;;;9.30;3.83;;;;;;;3.78;75.41;95141.66;1740101;82;21123;-62
2021/05/05 03:45:07;;;;;;;2.10;1.70;;;;;;;3.91;74.73;95140.82;1718160;82;21145;-62
2021/05/05 03:47:37;;;;;;;2.27;1.77;;;;;;;3.98;74.50;95136.45;1740170;82;21706;-62
2021/05/05 03:50:07;;;;;;;4.10;2.17;;;;;;;4.09;73.78;95137.33;1739954;82;21578;-62
2021/05/05 03:52:35;;;;;;;2.40;1.67;;;;;;;4.15;73.63;95135.14;1740084;82;21260;-62
2021/05/05 03:55:04;;;;;;;2.43;1.63;;;;;;;4.17;73.39;95138.17;1746483;81;21591;-62
2021/05/05 03:57:32;;;;;;;5.30;1.70;;;;;;;4.25;73.09;95136.86;1748249;82;21145;-62
2021/05/05 04:00:00;;;;;;;6.77;3.00;;;;;;;4.29;73.12;95149.91;1748217;82;21586;-62
2021/05/05 04:02:27;;;;;;;11.87;5.60;;;;;;;4.26;74.39;95143.84;1748291;81;21161;-62
2021/05/05 04:04:55;;;;;;;11.33;5.50;;;;;;;4.38;73.43;95144.23;1748299;82;21575;-62
2021/05/05 04:07:23;;;;;;;24.70;12.40;;;;;;;4.45;72.93;95146.83;1748222;81;21157;-62
2021/05/05 04:09:51;;;;;;;25.13;12.30;;;;;;;4.52;72.59;95143.33;1748213;82;21137;-62
2021/05/05 04:12:18;;;;;;;24.47;11.23;;;;;;;4.59;73.04;95148.12;1748672;82;21173;-62
2021/05/05 04:14:46;;;;;;;7.93;4.67;;;;;;;4.67;72.63;95143.73;1748308;82;21161;-61
2021/05/05 04:17:31;;;;;;;60.83;28.70;;;;;;;4.73;72.51;95153.28;1748136;82;21614;-61
2021/05/05 04:20:20;;;;;;;46.10;19.83;;;;;;;4.72;74.02;95148.50;1748253;82;21536;-62
2021/05/05 04:23:06;;;;;;;49.83;19.67;;;;;;;4.83;74.23;95151.08;1748171;81;21121;-61
2021/05/05 04:26:09;;;;;;;45.00;18.60;;;;;;;4.96;75.28;95147.97;1656143;87;21621;-61
2021/05/05 04:28:37;;;;;;;50.57;21.97;;;;;;;5.03;75.22;95147.08;1656403;87;21209;-61
2021/05/05 04:31:07;;;;;;;53.63;23.73;;;;;;;5.10;74.03;95140.95;1655897;87;21658;-61
2021/05/05 04:33:35;;;;;;;57.00;21.70;;;;;;;5.16;72.60;95132.19;1656237;87;21617;-61
2021/05/05 04:36:04;;;;;;;62.47;23.90;;;;;;;5.30;73.75;95126.45;1656146;87;21140;-61
2021/05/05 04:38:31;;;;;;;62.83;28.30;;;;;;;5.43;73.61;95127.25;1656075;87;21141;-61
2021/05/05 04:40:58;;;;;;;51.13;22.80;;;;;;;5.59;73.38;95128.02;1656481;87;21199;-61
2021/05/05 04:43:26;;;;;;;43.47;19.17;;;;;;;5.72;72.48;95121.83;1656086;87;21648;-61
2021/05/05 04:45:54;;;;;;;22.50;13.13;;;;;;;5.83;72.51;95120.43;1656203;87;21172;-61
2021/05/05 04:48:22;;;;;;;27.00;13.97;;;;;;;5.94;72.84;95125.61;1656000;87;21192;-62
2021/05/05 04:50:49;;;;;;;13.23;7.20;;;;;;;6.04;71.73;95128.13;1655971;87;21284;-62
2021/05/05 04:53:16;;;;;;;15.83;10.53;;;;;;;6.06;70.25;95126.81;1650077;87;21185;-62
2021/05/05 04:55:44;;;;;;;12.23;7.60;;;;;;;6.03;70.80;95135.57;1649560;86;21183;-63
2021/05/05 04:58:11;;;;;;;13.17;7.50;;;;;;;6.09;70.87;95132.02;1649385;87;21177;-64
2021/05/05 05:00:39;;;;;;;13.47;7.30;;;;;;;6.16;70.12;95143.33;1705699;83;21271;-64
2021/05/05 05:03:07;;;;;;;13.20;7.70;;;;;;;6.15;70.43;95140.26;1728619;83;21295;-63
2021/05/05 05:05:35;;;;;;;11.83;6.27;;;;;;;6.23;70.20;95137.16;1728572;83;21139;-64
2021/05/05 05:08:03;;;;;;;19.33;11.10;;;;;;;6.33;70.12;95132.25;1720213;82;21143;-63
2021/05/05 05:10:30;;;;;;;19.13;10.87;;;;;;;6.42;70.00;95133.91;1718710;83;21178;-64
2021/05/05 05:13:00;;;;;;;17.83;10.03;;;;;;;6.60;70.18;95127.59;1718609;83;21162;-63
2021/05/05 05:15:28;;;;;;;10.83;7.53;;;;;;;6.80;70.16;95128.69;1718611;83;21309;-63
2021/05/05 05:17:56;;;;;;;11.80;7.83;;;;;;;7.00;70.45;95131.08;1718621;83;21164;-64
2021/05/05 05:20:24;;;;;;;12.37;7.70;;;;;;;7.15;70.29;95137.45;1718569;83;21163;-62
2021/05/05 05:22:55;;;;;;;11.83;8.23;;;;;;;7.34;70.22;95133.70;1718672;83;21156;-64
2021/05/05 05:25:24;;;;;;;14.80;9.30;;;;;;;7.46;70.19;95128.73;1718640;83;21187;-62
2021/05/05 05:27:53;;;;;;;11.80;7.63;;;;;;;7.70;69.33;95120.93;1718709;83;21542;-63
2021/05/05 05:30:22;;;;;;;17.73;7.93;;;;;;;7.90;69.75;95121.08;1690503;83;21131;-64
2021/05/05 05:32:51;;;;;;;11.30;7.53;;;;;;;8.12;69.38;95125.09;1718545;83;21265;-61
2021/05/05 05:35:19;;;;;;;15.17;8.73;;;;;;;8.22;67.59;95115.30;1718525;83;21182;-64
2021/05/05 05:37:46;;;;;;;22.77;11.70;;;;;;;8.31;66.55;95117.75;1718624;83;21325;-63
2021/05/05 05:40:15;;;;;;;36.73;18.80;;;;;;;8.39;67.13;95122.48;1718592;83;21647;-65
2021/05/05 05:42:43;;;;;;;50.70;24.63;;;;;;;8.45;66.37;95112.30;1718581;83;21285;-64
2021/05/05 05:45:12;;;;;;;31.20;13.87;;;;;;;8.52;66.12;95111.75;1718944;83;21115;-65
2021/05/05 05:47:39;;;;;;;31.77;17.10;;;;;;;8.57;65.76;95116.02;1718840;83;21140;-64
2021/05/05 05:50:09;;;;;;;31.97;16.77;;;;;;;8.60;65.80;95114.64;1722181;82;21178;-63
2021/05/05 05:52:37;;;;;;;55.77;26.37;;;;;;;8.70;66.39;95121.05;1726709;82;21129;-64
2021/05/05 05:55:07;;;;;;;41.87;23.33;;;;;;;8.77;65.94;95111.70;1721770;82;21733;-65
2021/05/05 05:57:37;;;;;;;47.00;24.27;;;;;;;8.80;65.35;95108.14;1735449;82;21315;-63
2021/05/05 06:00:08;;;;;;;154.50;79.67;;;;;;;8.83;65.91;95107.63;1724292;83;21721;-65
2021/05/05 06:02:38;;;;;;;50.97;27.30;;;;;;;8.91;65.34;95103.52;1724383;83;21448;-62
2021/05/05 06:05:09;;;;;;;77.13;41.10;;;;;;;9.04;66.07;95091.84;1724033;83;21303;-64
2021/05/05 06:07:37;;;;;;;39.50;18.00;;;;;;;9.10;65.68;95090.41;1724190;83;21705;-63
2021/05/05 06:10:08;;;;;;;50.13;29.97;;;;;;;9.18;64.90;95090.71;1724226;83;21279;-64
2021/05/05 06:12:35;;;;;;;47.33;22.00;;;;;;;9.25;64.63;95089.69;1735337;82;21109;-66
2021/05/05 06:15:06;;;;;;;33.97;18.43;;;;;;;9.37;64.30;95088.08;1754301;82;21140;-64
2021/05/05 06:17:34;;;;;;;38.30;19.20;;;;;;;9.49;64.57;95090.44;1754051;82;21142;-65
2021/05/05 06:20:03;;;;;;;28.70;15.43;;;;;;;9.60;63.64;95098.13;1754156;82;21583;-63
2021/05/05 06:22:30;;;;;;;30.03;15.20;;;;;;;9.67;63.57;95094.41;1753978;82;21156;-64
2021/05/05 06:24:58;;;;;;;51.50;19.80;;;;;;;9.71;63.66;95090.83;1754121;82;21170;-64
2021/05/05 06:27:26;;;;;;;37.73;15.60;;;;;;;9.78;63.32;95095.94;1754233;82;21132;-63
2021/05/05 06:29:54;;;;;;;27.23;12.63;;;;;;;9.82;62.67;95090.56;1753972;82;21102;-67
2021/05/05 06:32:21;;;;;;;40.37;16.97;;;;;;;9.81;63.21;95080.94;1754026;82;21134;-65
2021/05/05 06:34:52;;;;;;;45.00;18.87;;;;;;;9.91;64.26;95089.03;1754454;82;21128;-65
2021/05/05 06:37:20;;;;;;;44.43;17.93;;;;;;;10.02;63.74;95091.40;1753818;81;21153;-65
2021/05/05 06:39:47;;;;;;;34.67;14.93;;;;;;;10.13;63.90;95081.91;1754028;82;21578;-65
2021/05/05 06:42:17;;;;;;;32.63;15.67;;;;;;;10.21;62.68;95080.42;1754049;82;21141;-64
2021/05/05 06:44:45;;;;;;;35.10;15.87;;;;;;;10.24;62.16;95078.56;1753967;82;21121;-62
2021/05/05 06:47:14;;;;;;;32.77;14.53;;;;;;;10.31;62.35;95075.36;1754064;82;21145;-63
2021/05/05 06:49:43;;;;;;;36.70;16.27;;;;;;;10.38;62.16;95078.22;1753892;82;21133;-61
2021/05/05 06:52:10;;;;;;;41.47;16.40;;;;;;;10.46;61.67;95069.67;1753952;82;21142;-62
2021/05/05 06:54:38;;;;;;;35.23;15.23;;;;;;;10.57;62.36;95064.97;1750277;81;21150;-64
2021/05/05 06:57:07;;;;;;;37.67;16.77;;;;;;;10.69;62.81;95070.83;1740079;82;21339;-64
2021/05/05 06:59:35;;;;;;;46.37;17.30;;;;;;;10.78;62.47;95071.41;1739862;82;21729;-63
2021/05/05 07:02:03;;;;;;;44.33;18.83;;;;;;;10.88;61.96;95069.39;1740027;82;21287;-64
2021/05/05 07:04:31;;;;;;;50.17;23.30;;;;;;;11.13;62.33;95068.23;1739983;81;21272;-64
2021/05/05 07:07:00;;;;;;;32.53;16.60;;;;;;;11.34;60.45;95057.52;1739973;82;21137;-65
2021/05/05 07:09:30;;;;;;;26.47;13.40;;;;;;;11.41;59.60;95052.42;1740218;81;21292;-64
2021/05/05 07:11:58;;;;;;;32.10;12.47;;;;;;;11.56;59.72;95051.55;1740236;82;21149;-64
2021/05/05 07:14:25;;;;;;;17.13;9.30;;;;;;;11.85;59.29;95051.97;1740343;81;21276;-64
2021/05/05 07:16:53;;;;;;;17.10;7.33;;;;;;;12.16;58.77;95044.38;1739883;82;21702;-64
2021/05/05 07:19:21;;;;;;;16.10;9.00;;;;;;;12.47;53.93;95031.84;1739993;82;21179;-64
2021/05/05 07:21:49;;;;;;;14.30;7.10;;;;;;;12.79;55.72;95031.14;1740109;82;21315;-65
2021/05/05 07:24:17;;;;;;;11.43;5.67;;;;;;;13.13;54.11;95023.30;1740321;82;21291;-63
2021/05/05 07:26:44;;;;;;;14.13;5.13;;;;;;;13.50;54.41;95011.30;1719249;82;21118;-67
2021/05/05 07:29:12;;;;;;;6.07;3.73;;;;;;;13.76;54.04;95012.45;1740025;82;21145;-66
2021/05/05 07:31:39;;;;;;;6.23;3.30;;;;;;;14.05;49.48;95009.06;1740105;82;21165;-65
2021/05/05 07:34:09;;;;;;;6.93;3.47;;;;;;;14.35;48.23;95005.59;1739981;82;21315;-63
2021/05/05 07:36:36;;;;;;;6.67;4.10;;;;;;;14.60;48.76;95001.44;1740295;82;21157;-65
2021/05/05 07:39:35;;;;;;;5.73;3.77;;;;;;;14.92;48.88;94998.69;1740010;82;21147;-66
2021/05/05 07:46:59;;;;;;;4.83;2.53;;;;;;;15.63;47.43;94991.42;1739958;82;21131;-62
2021/05/05 07:49:25;;;;;;;4.30;3.00;;;;;;;15.71;47.12;94985.77;1739916;81;21268;-64
2021/05/05 07:51:52;;;;;;;7.73;2.77;;;;;;;15.74;47.18;94980.29;1740029;82;21675;-64
2021/05/05 07:54:21;;;;;;;6.83;3.77;;;;;;;15.74;46.10;94976.30;1740230;81;21169;-66
2021/05/05 07:56:49;;;;;;;8.17;3.20;;;;;;;15.73;46.37;94985.23;1740100;82;21301;-64
2021/05/05 07:59:16;;;;;;;6.97;3.00;;;;;;;15.73;46.99;94987.41;1740391;82;21141;-65
2021/05/05 08:01:46;;;;;;;5.87;2.70;;;;;;;15.75;47.05;94979.38;1740016;82;21138;-64
2021/05/05 08:04:15;;;;;;;5.53;3.07;;;;;;;15.68;44.94;94976.11;1740299;82;21150;-66
2021/05/05 08:06:43;;;;;;;4.63;2.47;;;;;;;15.56;44.73;94982.87;1739970;82;21319;-70
2021/05/05 08:09:11;;;;;;;5.90;2.70;;;;;;;15.41;44.62;94979.61;1740080;82;21296;-66
2021/05/05 08:11:38;;;;;;;5.00;3.13;;;;;;;15.26;44.45;94982.99;1739923;82;21600;-67
2021/05/05 08:14:06;;;;;;;8.43;4.10;;;;;;;15.12;46.39;94978.33;1740172;82;21288;-67
2021/05/05 08:16:34;;;;;;;12.37;4.70;;;;;;;15.03;46.82;94976.94;1740155;82;21165;-66
2021/05/05 08:19:03;;;;;;;9.57;4.37;;;;;;;14.98;47.05;94977.63;1739992;82;21111;-64
2021/05/05 08:21:30;;;;;;;6.90;3.40;;;;;;;14.88;47.03;94978.97;1739712;82;21283;-64
2021/05/05 08:23:59;;;;;;;4.13;2.37;;;;;;;14.74;47.94;94976.95;1740086;82;21146;-63
2021/05/05 08:26:29;;;;;;;2.43;2.23;;;;;;;14.54;48.64;94980.92;1740011;82;21133;-65
2021/05/05 08:28:59;;;;;;;4.03;2.77;;;;;;;14.41;49.14;94982.78;1719537;82;21153;-66
2021/05/05 08:31:27;;;;;;;4.60;3.07;;;;;;;14.35;49.62;94979.52;1740214;82;21169;-65
2021/05/05 08:33:55;;;;;;;5.30;3.40;;;;;;;14.29;49.67;94981.51;1740190;82;21280;-66
2021/05/05 08:36:23;;;;;;;7.07;3.57;;;;;;;14.36;49.49;94972.80;1740175;82;21149;-68
2021/05/05 08:38:54;;;;;;;7.47;3.13;;;;;;;14.52;50.46;94974.34;1739516;82;21686;-66
2021/05/05 08:41:22;;;;;;;5.33;2.83;;;;;;;14.78;50.24;94967.89;1740342;82;21279;-65
2021/05/05 08:43:51;;;;;;;6.67;3.40;;;;;;;15.03;49.08;94963.66;1719518;82;21102;-64
2021/05/05 08:46:19;;;;;;;10.13;2.87;;;;;;;15.21;48.17;94960.61;1740273;82;21272;-63
2021/05/05 08:48:49;;;;;;;5.17;2.87;;;;;;;15.44;48.33;94949.36;1740871;81;21125;-66
2021/05/05 08:51:17;;;;;;;3.77;2.57;;;;;;;15.79;46.76;94939.22;1740146;82;21178;-63
2021/05/05 08:53:45;;;;;;;3.73;2.57;;;;;;;15.98;45.29;94934.34;1740360;81;21248;-66
2021/05/05 08:56:12;;;;;;;7.23;2.70;;;;;;;16.08;43.65;94932.94;1749325;81;21196;-64
2021/05/05 08:58:40;;;;;;;5.50;3.40;;;;;;;16.30;40.90;94931.34;1754162;82;21185;-66
2021/05/05 09:01:08;;;;;;;4.60;3.10;;;;;;;16.51;39.24;94924.54;1754273;82;21142;-64
2021/05/05 09:03:40;;;;;;;3.60;2.40;;;;;;;16.79;42.75;94921.30;1754288;82;21140;-68
2021/05/05 09:06:07;;;;;;;5.43;2.47;;;;;;;17.09;43.04;94908.11;1754096;82;21126;-63
2021/05/05 09:08:36;;;;;;;4.43;2.80;;;;;;;17.34;42.83;94912.95;1754291;82;21109;-63
2021/05/05 09:11:08;;;;;;;3.70;2.73;;;;;;;17.49;40.18;94907.23;1754335;82;21161;-64
2021/05/05 09:13:58;;;;;;;4.63;2.90;;;;;;;17.89;42.84;94898.27;1754386;82;21102;-64
2021/05/05 09:16:31;;;;;;;4.33;2.67;;;;;;;18.27;39.63;94896.48;1754242;82;21125;-64
2021/05/05 09:19:09;;;;;;;3.83;2.67;;;;;;;18.26;38.42;94898.78;1754576;82;21121;-63
2021/05/05 09:21:44;;;;;;;3.35;2.45;;;;;;;18.31;38.45;94895.35;1754005;82;21118;-63
2021/05/05 09:24:28;;;;;;;3.63;2.80;;;;;;;18.33;39.88;94896.98;1754374;82;21153;-64
2021/05/05 09:27:09;;;;;;;5.33;2.62;;;;;;;18.21;40.00;94894.19;1754276;82;21563;-63
2021/05/05 09:29:50;;;;;;;6.85;4.17;;;;;;;17.92;36.75;94890.11;1754459;82;21089;-63
2021/05/05 09:32:22;;;;;;;4.10;3.02;;;;;;;17.84;39.16;94892.34;1754447;82;21130;-63
2021/05/05 09:35:02;;;;;;;;;;;;;;;17.68;39.75;94896.34;1756874;82;21519;-63
2021/05/05 09:37:30;;;;;;;3.58;2.75;;;;;;;17.54;39.48;94901.16;1754226;82;20161;-64
2021/05/05 09:40:05;;;;;;;4.85;2.83;;;;;;;17.41;39.78;94892.11;1754356;82;21142;-63
2021/05/05 09:42:35;;;;;;;4.67;3.00;;;;;;;17.32;38.64;94888.65;1754172;82;21129;-63
2021/05/05 09:45:08;;;;;;;4.83;3.10;;;;;;;17.27;38.16;94888.90;1754151;82;21114;-63
2021/05/05 09:47:51;;;;;;;;;;;;;;;17.26;39.21;94873.38;1756885;82;21131;-63
2021/05/05 09:50:37;;;;;;;9.75;3.10;;;;;;;17.29;39.72;94865.20;1754220;82;20141;-63
2021/05/05 09:53:23;;;;;;;5.83;3.25;;;;;;;17.69;41.54;94855.40;1754153;82;21619;-64
2021/05/05 09:56:05;;;;;;;7.03;4.05;;;;;;;18.04;41.45;94849.80;1754314;82;21582;-63
2021/05/05 09:58:42;;;;;;;6.15;3.17;;;;;;;18.21;39.88;94848.31;1754263;82;21136;-63
2021/05/05 10:01:13;;;;;;;8.43;4.45;;;;;;;18.41;40.21;94847.59;1754085;82;21102;-63
2021/05/05 10:03:50;;;;;;;7.10;3.58;;;;;;;18.49;39.96;94843.48;1754277;82;21165;-63
2021/05/05 10:06:36;;;;;;;5.30;3.65;;;;;;;18.56;41.11;94832.80;1751028;82;21125;-64
2021/05/05 10:09:09;;;;;;;5.15;4.05;;;;;;;18.61;38.65;94832.52;1753418;82;21137;-63
2021/05/05 10:11:43;;;;;;;4.58;4.03;;;;;;;18.66;39.10;94832.23;1754196;82;21154;-63
2021/05/05 10:14:19;;;;;;;6.45;5.37;;;;;;;18.78;37.26;94832.84;1754060;82;21098;-63
2021/05/05 10:16:52;;;;;;;6.40;4.12;;;;;;;19.04;38.16;94829.84;1754119;82;21602;-63
2021/05/05 10:19:34;;;;;;;4.83;3.85;;;;;;;19.52;37.00;94818.73;1754333;82;21566;-63
2021/05/05 10:22:01;;;;;;;5.60;4.45;;;;;;;19.35;35.35;94798.42;1752703;82;21153;-63
2021/05/05 10:24:39;;;;;;;4.87;3.75;;;;;;;19.22;35.35;94826.45;1754139;82;21129;-63
2021/05/05 10:27:08;;;;;;;3.12;2.42;;;;;;;18.91;31.93;94822.23;1754076;82;21535;-63
2021/05/05 10:29:40;;;;;;;3.42;2.40;;;;;;;18.67;31.68;94824.14;1754316;82;21149;-63
2021/05/05 10:32:12;;;;;;;2.45;1.77;;;;;;;18.48;31.49;94816.88;1754327;82;21165;-63
2021/05/05 10:34:42;;;;;;;4.55;2.35;;;;;;;18.14;30.39;94827.82;1754367;81;21129;-63
2021/05/05 10:37:09;;;;;;;2.80;2.05;;;;;;;18.10;29.60;94824.94;1754206;82;21162;-63
2021/05/05 10:39:40;;;;;;;2.58;1.70;;;;;;;18.51;29.98;94811.34;1754211;82;21127;-63
2021/05/05 10:42:21;;;;;;;3.35;2.00;;;;;;;18.76;27.91;94824.05;1753873;82;21149;-63
2021/05/05 10:45:00;;;;;;;4.03;2.15;;;;;;;18.87;28.53;94830.05;1754209;82;21169;-63
2021/05/05 10:47:34;;;;;;;5.58;2.00;;;;;;;19.06;29.06;94836.44;1754210;82;21097;-63
2021/05/05 10:50:08;;;;;;;3.22;2.00;;;;;;;19.42;28.14;94812.63;1754443;82;21275;-63
2021/05/05 10:52:55;;;;;;;2.15;1.95;;;;;;;19.82;27.77;94827.41;1754028;82;21158;-63
2021/05/05 10:55:36;;;;;;;6.58;2.30;;;;;;;20.15;29.52;94811.36;1753987;81;21133;-63
2021/05/05 10:58:30;;;;;;;1.98;1.70;;;;;;;20.53;27.21;94818.06;1754086;82;21149;-63
2021/05/05 11:01:06;;;;;;;3.12;2.37;;;;;;;20.43;27.09;94818.34;1754373;82;21142;-63
2021/05/05 11:03:49;;;;;;;3.60;1.75;;;;;;;20.22;28.25;94815.33;1753793;82;21118;-63
2021/05/05 11:06:38;;;;;;;1.87;1.60;;;;;;;19.80;27.73;94827.99;1754018;82;21146;-63
2021/05/05 11:09:19;;;;;;;3.42;1.80;;;;;;;19.88;27.08;94831.03;1754288;82;21102;-63
2021/05/05 11:11:50;;;;;;;2.00;1.75;;;;;;;20.00;26.84;94824.45;1754157;82;21158;-63
2021/05/05 11:14:32;;;;;;;3.17;2.27;;;;;;;20.09;27.37;94821.16;1753916;82;21157;-63
2021/05/05 11:17:10;;;;;;;3.10;1.70;;;;;;;20.35;27.80;94815.83;1754263;82;21094;-63
2021/05/05 11:19:44;;;;;;;3.05;2.10;;;;;;;20.52;27.34;94815.52;1754210;82;21094;-63
2021/05/05 11:22:21;;;;;;;;;;;;;;;20.49;27.55;94820.61;1756541;82;21591;-63
2021/05/05 11:24:52;;;;;;;1.75;1.30;;;;;;;20.72;29.30;94811.46;1734306;82;20434;-63
2021/05/05 11:27:48;;;;;;;4.00;2.30;;;;;;;20.78;26.23;94808.33;1754535;82;21173;-63
2021/05/05 11:30:40;;;;;;;3.42;1.80;;;;;;;20.86;28.64;94802.41;1754215;82;21114;-63
2021/05/05 11:33:11;;;;;;;3.98;2.05;;;;;;;20.63;27.45;94808.93;1698864;84;21602;-63
2021/05/05 11:35:41;;;;;;;7.87;2.30;;;;;;;20.77;28.97;94797.24;1685654;85;21176;-63
2021/05/05 11:38:19;;;;;;;3.87;2.90;;;;;;;21.22;27.10;94806.08;1754057;82;21173;-62
2021/05/05 11:40:57;;;;;;;4.03;2.27;;;;;;;21.23;28.03;94799.27;1754303;82;21161;-62
2021/05/05 11:43:26;;;;;;;4.85;2.10;;;;;;;21.34;29.09;94797.13;1754281;81;21137;-62
2021/05/05 11:45:59;;;;;;;2.45;1.40;;;;;;;21.81;27.73;94789.59;1754295;82;21523;-63
2021/05/05 11:48:37;;;;;;;3.47;1.80;;;;;;;22.35;25.56;94793.59;1754418;82;21531;-63
2021/05/05 11:51:24;;;;;;;2.20;2.00;;;;;;;23.00;25.43;94792.53;1753935;82;21137;-63
2021/05/05 11:53:52;;;;;;;4.75;2.70;;;;;;;23.19;24.84;94776.62;1754225;82;21129;-62
2021/05/05 11:56:26;;;;;;;4.08;2.17;;;;;;;23.42;25.54;94790.03;1749047;81;21173;-62